Terminal Aerodrome Forecast
Issued by NWS

Home | Current Version | Previous Version | Text Only | Print | Product List | Glossary On
Versions: 1 2 3 4 5 6 7 8 9 10 11 12 13 14 15 16 17 18 19 20 21 22 23 24 25 26 27 28 29 30
000
FTUS42 KCAE 211400 AAA
TAFDNL
TAF AMD
KDNL 211452Z 2115/2212 05007KT P6SM OVC060
     FM212000 04005KT P6SM VCSH OVC025
     FM220100 03005KT 4SM -RA BR OVC008=

USA.gov is the U.S. government's official web portal to all federal, state and local government web resources and services.